createdAt,value
2022-10-01T00:00:00.157Z,994.71
2022-10-01T00:05:01.025Z,994.68
2022-10-01T00:10:00.092Z,994.75
2022-10-01T00:15:03.095Z,994.64
2022-10-01T00:20:00.096Z,994.6
2022-10-01T00:25:00.120Z,994.52
2022-10-01T00:30:00.107Z,994.55
2022-10-01T00:35:00.113Z,994.45
2022-10-01T00:40:00.084Z,994.46
2022-10-01T00:45:00.100Z,994.47
2022-10-01T00:50:00.162Z,994.4
2022-10-01T00:55:00.107Z,994.35
2022-10-01T01:00:00.157Z,994.45
2022-10-01T01:05:00.141Z,994.41
2022-10-01T01:10:00.143Z,994.42
2022-10-01T01:15:00.096Z,994.3
2022-10-01T01:20:00.119Z,994.44
2022-10-01T01:25:00.123Z,994.33
2022-10-01T01:30:00.091Z,994.3
2022-10-01T01:35:00.082Z,994.16
2022-10-01T01:40:00.074Z,994.06
2022-10-01T01:45:00.099Z,994.02
2022-10-01T01:50:00.082Z,993.9
2022-10-01T01:55:00.116Z,993.87
2022-10-01T02:00:00.156Z,993.95
2022-10-01T02:05:00.131Z,993.96
2022-10-01T02:10:00.098Z,993.94
2022-10-01T02:15:00.098Z,993.85
2022-10-01T02:20:00.105Z,993.89
2022-10-01T02:25:00.108Z,993.84
2022-10-01T02:30:00.120Z,993.8
2022-10-01T02:35:00.090Z,993.77
2022-10-01T02:40:00.085Z,993.78
2022-10-01T02:45:00.098Z,993.62
2022-10-01T02:50:00.087Z,993.62
2022-10-01T02:55:00.118Z,993.57
2022-10-01T03:00:00.131Z,993.56
2022-10-01T03:05:00.127Z,993.49
2022-10-01T03:10:00.118Z,993.48
2022-10-01T03:15:00.067Z,993.45
2022-10-01T03:20:00.094Z,993.34
2022-10-01T03:25:00.105Z,992.8
2022-10-01T03:30:00.125Z,992.81
2022-10-01T03:35:00.075Z,992.82
2022-10-01T03:40:00.105Z,992.85
2022-10-01T03:45:00.093Z,992.79
2022-10-01T03:50:00.082Z,992.79
2022-10-01T03:55:00.078Z,992.74
2022-10-01T04:00:00.112Z,992.62
2022-10-01T04:05:00.197Z,992.62
2022-10-01T04:10:00.085Z,992.62
2022-10-01T04:15:00.075Z,992.55
2022-10-01T04:20:00.127Z,992.49
2022-10-01T04:25:00.115Z,992.47
2022-10-01T04:30:00.102Z,992.38
2022-10-01T04:35:00.098Z,992.42
2022-10-01T04:40:00.084Z,992.38
2022-10-01T04:45:00.125Z,992.29
2022-10-01T04:50:00.073Z,992.37
2022-10-01T04:55:00.097Z,992.32
2022-10-01T05:00:00.102Z,992.38
2022-10-01T05:05:00.121Z,992.39
2022-10-01T05:10:00.087Z,992.39
2022-10-01T05:15:00.099Z,992.41
2022-10-01T05:20:00.144Z,992.33
2022-10-01T05:25:00.137Z,992.25
2022-10-01T05:30:00.105Z,992.23
2022-10-01T05:35:00.100Z,992.18
2022-10-01T05:40:00.091Z,992.1
2022-10-01T05:45:00.103Z,992.01
2022-10-01T05:50:00.104Z,991.95
2022-10-01T05:55:00.086Z,991.9
2022-10-01T06:00:00.122Z,991.84
2022-10-01T06:05:00.112Z,991.83
2022-10-01T06:10:00.096Z,991.82
2022-10-01T06:15:00.094Z,991.7
2022-10-01T06:20:00.094Z,991.74
2022-10-01T06:25:00.132Z,991.55
2022-10-01T06:30:00.098Z,991.47
2022-10-01T06:35:00.077Z,991.44
2022-10-01T06:40:00.086Z,991.4
2022-10-01T06:45:00.175Z,991.38
2022-10-01T06:50:00.142Z,991.25
2022-10-01T06:55:00.086Z,991.24
2022-10-01T07:00:00.109Z,991.18
2022-10-01T07:05:00.129Z,991.19
2022-10-01T07:10:00.106Z,991.12
2022-10-01T07:15:00.097Z,991.12
2022-10-01T07:20:00.119Z,991.03
2022-10-01T07:25:00.118Z,990.85
2022-10-01T07:30:00.118Z,990.85
2022-10-01T07:35:00.078Z,990.81
2022-10-01T07:40:03.007Z,990.85
2022-10-01T07:45:00.105Z,990.68
2022-10-01T07:50:00.077Z,990.67
2022-10-01T07:55:00.102Z,990.72
2022-10-01T08:00:00.118Z,990.66
2022-10-01T08:05:00.119Z,990.63
2022-10-01T08:10:00.090Z,990.6
2022-10-01T08:15:00.077Z,990.56
2022-10-01T08:20:00.095Z,990.43
2022-10-01T08:25:00.125Z,990.3
2022-10-01T08:30:00.120Z,990.15
2022-10-01T08:35:00.180Z,990.06
2022-10-01T08:40:00.115Z,990.01
2022-10-01T08:45:00.110Z,989.83
2022-10-01T08:50:00.108Z,989.72
2022-10-01T08:55:00.084Z,989.63
2022-10-01T09:00:00.112Z,989.59
2022-10-01T09:05:01.676Z,989.61
2022-10-01T09:10:00.123Z,989.49
2022-10-01T09:15:00.098Z,989.53
2022-10-01T09:20:00.132Z,989.35
2022-10-01T09:25:00.139Z,989.47
2022-10-01T09:30:00.123Z,989.45
2022-10-01T09:35:04.170Z,989.42
2022-10-01T09:40:00.096Z,989.43
2022-10-01T09:45:00.160Z,989.39
2022-10-01T09:50:00.092Z,989.37
2022-10-01T09:55:00.144Z,989.43
2022-10-01T10:00:00.306Z,989.52
2022-10-01T10:05:00.135Z,989.4
2022-10-01T10:10:00.100Z,989.56
2022-10-01T10:15:00.087Z,989.52
2022-10-01T10:20:00.081Z,989.5
2022-10-01T10:25:00.147Z,989.66
2022-10-01T10:30:00.096Z,989.54
2022-10-01T10:35:03.007Z,989.58
2022-10-01T10:40:00.112Z,989.47
2022-10-01T10:45:00.117Z,989.42
2022-10-01T10:50:00.130Z,989.47
2022-10-01T10:55:00.104Z,989.35
2022-10-01T11:00:00.154Z,989.29
2022-10-01T11:05:00.103Z,989.27
2022-10-01T11:10:00.099Z,989.17
2022-10-01T11:15:00.099Z,989.08
2022-10-01T11:20:00.100Z,989.09
2022-10-01T11:25:00.130Z,989.04
2022-10-01T11:30:00.092Z,988.94
2022-10-01T11:35:00.093Z,988.99
2022-10-01T11:40:00.102Z,988.99
2022-10-01T11:45:00.866Z,989
2022-10-01T11:50:00.090Z,988.94
2022-10-01T11:55:00.083Z,988.91
2022-10-01T12:00:00.153Z,988.81
2022-10-01T12:05:00.112Z,988.77
2022-10-01T12:10:00.091Z,988.84
2022-10-01T12:15:04.210Z,988.82
2022-10-01T12:20:00.098Z,988.82
2022-10-01T12:25:00.119Z,988.78
2022-10-01T12:30:00.085Z,988.85
2022-10-01T12:35:00.094Z,988.86
2022-10-01T12:40:00.081Z,988.97
2022-10-01T12:45:00.129Z,988.94
2022-10-01T12:50:00.161Z,988.84
2022-10-01T12:55:00.110Z,988.84
2022-10-01T13:00:00.185Z,988.87
2022-10-01T13:05:00.105Z,988.88
2022-10-01T13:10:00.098Z,988.87
2022-10-01T13:15:00.080Z,988.98
2022-10-01T13:20:00.109Z,989.11
2022-10-01T13:25:00.112Z,989.08
2022-10-01T13:30:00.166Z,988.99
2022-10-01T13:35:00.093Z,989.07
2022-10-01T13:40:00.098Z,989.09
2022-10-01T13:45:00.110Z,989.15
2022-10-01T13:50:00.089Z,989.17
2022-10-01T13:55:00.095Z,989.13
2022-10-01T14:00:00.143Z,989.12
2022-10-01T14:05:00.128Z,989.2
2022-10-01T14:10:00.111Z,989.11
2022-10-01T14:15:00.067Z,989.17
2022-10-01T14:20:00.080Z,989.27
2022-10-01T14:25:00.101Z,989.2
2022-10-01T14:30:00.104Z,989.29
2022-10-01T14:35:00.091Z,989.29
2022-10-01T14:40:00.084Z,989.23
2022-10-01T14:45:00.145Z,989.14
2022-10-01T14:50:00.101Z,989.26
2022-10-01T14:55:00.125Z,989.41
2022-10-01T15:00:00.124Z,989.44
2022-10-01T15:05:00.202Z,989.45
2022-10-01T15:10:00.093Z,989.43
2022-10-01T15:15:00.099Z,989.45
2022-10-01T15:20:00.127Z,989.39
2022-10-01T15:25:00.106Z,989.35
2022-10-01T15:30:00.159Z,989.35
2022-10-01T15:35:00.096Z,989.41
2022-10-01T15:40:00.145Z,989.26
2022-10-01T15:45:00.113Z,989.33
2022-10-01T15:50:00.081Z,989.38
2022-10-01T15:55:00.086Z,989.4
2022-10-01T16:00:00.132Z,989.55
2022-10-01T16:05:00.129Z,989.52
2022-10-01T16:10:00.109Z,989.65
2022-10-01T16:15:00.104Z,989.73
2022-10-01T16:20:00.103Z,989.76
2022-10-01T16:25:00.094Z,989.61
2022-10-01T16:30:04.158Z,989.68
2022-10-01T16:35:00.099Z,989.8
2022-10-01T16:40:00.092Z,989.82
2022-10-01T16:45:00.133Z,989.93
2022-10-01T16:50:00.075Z,990.12
2022-10-01T16:55:00.069Z,989.95
2022-10-01T17:00:00.132Z,990.06
2022-10-01T17:05:00.105Z,990.19
2022-10-01T17:10:00.076Z,990.24
2022-10-01T17:15:00.089Z,990.23
2022-10-01T17:20:00.093Z,990.4
2022-10-01T17:25:00.112Z,990.58
2022-10-01T17:30:00.178Z,990.56
2022-10-01T17:35:00.144Z,990.65
2022-10-01T17:40:00.113Z,990.69
2022-10-01T17:45:00.128Z,990.77
2022-10-01T17:50:00.124Z,990.76
2022-10-01T17:55:00.130Z,990.85
2022-10-01T18:00:00.118Z,990.9
2022-10-01T18:05:00.151Z,990.93
2022-10-01T18:10:00.084Z,991.07
2022-10-01T18:15:00.083Z,991.05
2022-10-01T18:20:00.137Z,991.07
2022-10-01T18:25:00.099Z,991.21
2022-10-01T18:30:00.096Z,991.35
2022-10-01T18:35:00.099Z,991.47
2022-10-01T18:40:00.159Z,991.47
2022-10-01T18:45:00.115Z,991.45
2022-10-01T18:50:00.107Z,991.55
2022-10-01T18:55:00.074Z,991.58
2022-10-01T19:00:00.129Z,991.65
2022-10-01T19:05:00.112Z,991.71
2022-10-01T19:10:00.117Z,991.87
2022-10-01T19:15:00.102Z,991.89
2022-10-01T19:20:00.099Z,992.05
2022-10-01T19:25:00.121Z,992.1
2022-10-01T19:30:00.135Z,992.21
2022-10-01T19:35:00.109Z,992.2
2022-10-01T19:40:00.110Z,992.2
2022-10-01T19:45:00.106Z,992.26
2022-10-01T19:50:00.090Z,992.35
2022-10-01T19:55:00.095Z,992.5
2022-10-01T20:00:00.106Z,992.49
2022-10-01T20:05:00.123Z,992.58
2022-10-01T20:10:04.444Z,992.57
2022-10-01T20:15:00.075Z,992.8
2022-10-01T20:20:00.125Z,992.96
2022-10-01T20:25:00.113Z,993.48
2022-10-01T20:30:00.120Z,993.5
2022-10-01T20:35:00.119Z,993.62
2022-10-01T20:40:00.104Z,993.69
2022-10-01T20:45:00.114Z,993.79
2022-10-01T20:50:00.101Z,993.92
2022-10-01T20:55:00.096Z,993.95
2022-10-01T21:00:00.102Z,994.01
2022-10-01T21:05:00.099Z,994.1
2022-10-01T21:10:00.087Z,994.1
2022-10-01T21:15:00.097Z,994.17
2022-10-01T21:20:00.101Z,994.27
2022-10-01T21:25:00.113Z,994.38
2022-10-01T21:30:00.085Z,994.47
2022-10-01T21:35:00.099Z,994.52
2022-10-01T21:40:00.095Z,994.54
2022-10-01T21:45:00.099Z,994.77
2022-10-01T21:50:00.079Z,994.88
2022-10-01T21:55:00.136Z,994.85
2022-10-01T22:00:00.147Z,994.98
2022-10-01T22:05:00.125Z,995.1
2022-10-01T22:10:00.098Z,995.22
2022-10-01T22:15:00.113Z,995.28
2022-10-01T22:20:00.091Z,995.34
2022-10-01T22:25:00.126Z,995.32
2022-10-01T22:30:00.098Z,995.45
2022-10-01T22:35:00.095Z,995.51
2022-10-01T22:40:00.097Z,995.55
2022-10-01T22:45:00.119Z,995.64
2022-10-01T22:50:00.105Z,995.64
2022-10-01T22:55:00.090Z,995.69
2022-10-01T23:00:00.106Z,995.79
2022-10-01T23:05:00.113Z,995.84
2022-10-01T23:10:00.090Z,995.89
2022-10-01T23:15:00.086Z,995.99
2022-10-01T23:20:00.118Z,996.03
2022-10-01T23:25:00.125Z,996.1
2022-10-01T23:30:00.097Z,996.09
2022-10-01T23:35:00.104Z,996.19
2022-10-01T23:40:00.099Z,996.23
2022-10-01T23:45:00.090Z,996.36
2022-10-01T23:50:00.080Z,996.35
2022-10-01T23:55:00.084Z,996.49
